Time;durP1;ratioP1;P1;durP2;ratioP2;P2;SDS_P1;SDS_P2;PMS_P1;PMS_P2;Temp;Humidity;BMP_temperature;BMP_pressure;BME280_temperature;BME280_humidity;BME280_pressure;Samples;Min_cycle;Max_cycle;Signal;HPM_P1;HPM_P2
2023/05/22 00:01:45;;;;;;;12.57;11.68;;;19.10;81.60;;;;;;5003729;28;20532;-89
2023/05/22 00:04:12;;;;;;;13.25;12.25;;;19.10;81.00;;;;;;5003975;28;20194;-89
2023/05/22 00:06:41;;;;;;;12.50;11.60;;;19.10;78.40;;;;;;5012475;28;20424;-90
2023/05/22 00:09:07;;;;;;;12.57;11.57;;;19.20;75.70;;;;;;5021013;28;20187;-87
2023/05/22 00:11:34;;;;;;;13.10;11.95;;;19.10;76.90;;;;;;5020047;28;20193;-89
2023/05/22 00:14:00;;;;;;;12.38;11.45;;;19.10;75.90;;;;;;5038960;28;20212;-89
2023/05/22 00:16:26;;;;;;;13.13;12.13;;;19.00;75.90;;;;;;5040184;28;20253;-89
2023/05/22 00:18:52;;;;;;;12.05;11.13;;;19.10;76.40;;;;;;5032871;28;20388;-88
2023/05/22 00:21:18;;;;;;;12.27;11.32;;;19.10;76.20;;;;;;5020229;28;20584;-87
2023/05/22 00:23:44;;;;;;;13.52;12.23;;;19.20;75.80;;;;;;5018837;28;20191;-88
2023/05/22 00:26:13;;;;;;;13.52;12.32;;;19.20;76.70;;;;;;5020089;28;20261;-88
2023/05/22 00:28:38;;;;;;;13.35;12.30;;;19.00;78.60;;;;;;5019533;28;20185;-87
2023/05/22 00:31:04;;;;;;;12.45;11.52;;;19.00;78.50;;;;;;5019361;28;20688;-89
2023/05/22 00:33:30;;;;;;;12.77;11.77;;;19.10;77.90;;;;;;5005180;28;20194;-87
2023/05/22 00:35:55;;;;;;;13.10;12.20;;;19.00;78.40;;;;;;4999379;28;20237;-88
2023/05/22 00:38:32;;;;;;;13.15;12.05;;;19.00;78.50;;;;;;4998678;28;20186;-88
2023/05/22 00:41:02;;;;;;;13.45;12.45;;;18.80;79.50;;;;;;4998001;28;20254;-89
2023/05/22 00:43:28;;;;;;;12.88;11.77;;;18.70;79.90;;;;;;4998626;28;20174;-88
2023/05/22 00:45:54;;;;;;;14.00;12.90;;;18.70;80.40;;;;;;4998117;28;20209;-90
2023/05/22 00:48:20;;;;;;;13.40;12.13;;;18.60;80.30;;;;;;5015860;28;20183;-89
2023/05/22 00:50:47;;;;;;;13.05;11.95;;;18.50;81.10;;;;;;5017563;28;20183;-87
2023/05/22 00:53:13;;;;;;;12.95;11.65;;;18.40;80.50;;;;;;5018734;28;20239;-89
2023/05/22 00:55:40;;;;;;;14.73;12.20;;;18.50;80.80;;;;;;5018621;28;20265;-88
2023/05/22 00:58:08;;;;;;;13.65;12.55;;;18.30;81.80;;;;;;5018797;28;20170;-89
2023/05/22 01:00:35;;;;;;;12.25;11.32;;;18.20;82.60;;;;;;5018169;28;20166;-87
2023/05/22 01:03:03;;;;;;;13.60;11.95;;;18.20;82.20;;;;;;5016386;28;20181;-88
2023/05/22 01:05:28;;;;;;;12.75;11.52;;;18.30;81.60;;;;;;5000348;28;20239;-88
2023/05/22 01:07:55;;;;;;;15.68;12.43;;;18.30;81.90;;;;;;4999639;28;20351;-88
2023/05/22 01:10:22;;;;;;;13.40;12.30;;;18.30;81.90;;;;;;5014184;28;20314;-89
2023/05/22 01:13:03;;;;;;;13.07;11.98;;;18.10;82.50;;;;;;5028488;28;20330;-87
2023/05/22 01:15:43;;;;;;;13.07;11.98;;;17.90;83.90;;;;;;5028893;28;20216;-87
2023/05/22 01:18:45;;;;;;;12.82;11.82;;;17.80;83.80;;;;;;5009379;28;20197;-89
2023/05/22 01:21:13;;;;;;;12.45;11.50;;;17.90;83.20;;;;;;5000450;28;20202;-89
2023/05/22 01:24:06;;;;;;;12.90;11.80;;;18.10;82.70;;;;;;4999411;28;20181;-88
2023/05/22 01:27:02;;;;;;;12.55;11.48;;;18.20;81.20;;;;;;4998524;28;20174;-88
2023/05/22 01:29:42;;;;;;;13.00;11.90;;;18.00;82.00;;;;;;5008745;28;20178;-89
2023/05/22 01:32:11;;;;;;;13.05;11.82;;;17.90;82.30;;;;;;5017246;28;20181;-87
2023/05/22 01:34:38;;;;;;;14.13;12.90;;;17.80;83.00;;;;;;5017684;28;20201;-88
2023/05/22 01:37:04;;;;;;;12.65;11.57;;;17.70;84.30;;;;;;5017943;28;20170;-88
2023/05/22 01:39:30;;;;;;;12.70;11.80;;;17.70;83.80;;;;;;5018431;28;20219;-89
2023/05/22 01:41:57;;;;;;;12.30;11.40;;;17.80;83.70;;;;;;5016714;28;20202;-90
2023/05/22 01:44:22;;;;;;;12.43;11.52;;;17.80;82.90;;;;;;5010511;28;20210;-88
2023/05/22 01:46:48;;;;;;;13.35;12.15;;;17.70;83.20;;;;;;4998386;28;20620;-89
2023/05/22 01:49:14;;;;;;;13.02;12.02;;;17.80;82.70;;;;;;4997428;28;20186;-89
2023/05/22 01:52:02;;;;;;;13.68;12.55;;;17.70;82.70;;;;;;4997541;28;20190;-89
2023/05/22 01:54:47;;;;;;;13.88;12.70;;;17.80;82.70;;;;;;4998889;28;20204;-87
2023/05/22 01:57:25;;;;;;;13.65;12.50;;;17.80;83.10;;;;;;5010078;28;20216;-88
2023/05/22 02:00:10;;;;;;;14.32;13.13;;;17.90;82.70;;;;;;5013087;28;20186;-88
2023/05/22 02:02:38;;;;;;;13.88;12.77;;;17.90;82.30;;;;;;5000042;28;20182;-88
2023/05/22 02:05:05;;;;;;;14.30;12.95;;;17.90;82.30;;;;;;4999809;28;20199;-89
2023/05/22 02:07:35;;;;;;;13.27;12.32;;;17.90;81.90;;;;;;4999588;28;20735;-88
2023/05/22 02:10:02;;;;;;;13.13;12.13;;;18.00;81.20;;;;;;4998647;28;20727;-88
2023/05/22 02:12:28;;;;;;;14.77;13.57;;;17.90;81.70;;;;;;5016096;28;20193;-89
2023/05/22 02:14:54;;;;;;;13.93;12.88;;;17.80;82.30;;;;;;5018730;28;20201;-86
2023/05/22 02:17:20;;;;;;;13.55;12.55;;;17.80;82.50;;;;;;5019215;28;20193;-88
2023/05/22 02:19:46;;;;;;;13.35;12.35;;;17.80;82.70;;;;;;5025231;28;20220;-89
2023/05/22 02:22:12;;;;;;;13.70;12.48;;;17.70;83.00;;;;;;5018057;28;20174;-91
2023/05/22 02:24:44;;;;;;;13.25;12.05;;;17.40;84.80;;;;;;5019108;28;20716;-89
2023/05/22 02:27:10;;;;;;;13.27;12.02;;;17.30;85.70;;;;;;5017292;28;20671;-88
2023/05/22 02:29:36;;;;;;;13.90;12.70;;;17.20;85.60;;;;;;5016930;28;20184;-88
2023/05/22 02:32:02;;;;;;;13.95;12.85;;;17.20;86.10;;;;;;5017264;28;20182;-88
2023/05/22 02:34:30;;;;;;;13.93;12.60;;;17.30;85.50;;;;;;5015592;28;20197;-89
2023/05/22 02:36:58;;;;;;;14.80;13.38;;;17.30;85.10;;;;;;5018047;28;20336;-88
2023/05/22 02:39:27;;;;;;;14.57;13.48;;;17.40;84.80;;;;;;5020286;28;20246;-89
2023/05/22 02:41:53;;;;;;;14.70;13.60;;;17.40;84.70;;;;;;5021978;28;20216;-87
2023/05/22 02:44:19;;;;;;;13.82;12.73;;;17.40;84.70;;;;;;5021234;28;20207;-88
2023/05/22 02:46:46;;;;;;;13.40;12.40;;;17.40;85.30;;;;;;5021597;28;20210;-87
2023/05/22 02:49:11;;;;;;;13.50;12.50;;;17.50;84.40;;;;;;5019885;28;20800;-87
2023/05/22 02:51:37;;;;;;;13.13;12.13;;;17.50;84.30;;;;;;5021071;28;20639;-87
2023/05/22 02:54:03;;;;;;;14.38;13.38;;;17.60;84.00;;;;;;5021431;28;20300;-88
2023/05/22 02:56:28;;;;;;;13.65;12.45;;;17.60;84.10;;;;;;5021167;28;20225;-88
2023/05/22 02:58:55;;;;;;;13.55;12.55;;;17.50;84.60;;;;;;5022872;28;20174;-87
2023/05/22 03:01:21;;;;;;;14.43;13.20;;;17.60;85.30;;;;;;5023378;28;20178;-88
2023/05/22 03:03:47;;;;;;;13.95;12.75;;;17.60;84.30;;;;;;5022431;28;20173;-89
2023/05/22 03:06:14;;;;;;;14.40;13.02;;;17.60;85.00;;;;;;5021287;28;20181;-89
2023/05/22 03:08:42;;;;;;;14.85;13.75;;;17.60;85.10;;;;;;5020611;28;20758;-89
2023/05/22 03:11:09;;;;;;;13.85;12.80;;;17.60;85.40;;;;;;5020536;28;20263;-88
2023/05/22 03:13:35;;;;;;;14.68;13.55;;;17.50;86.30;;;;;;5036460;28;20207;-88
2023/05/22 03:16:01;;;;;;;15.32;14.05;;;17.60;86.10;;;;;;5041019;28;20211;-88
2023/05/22 03:18:26;;;;;;;15.57;14.20;;;17.60;86.30;;;;;;5040329;28;20255;-89
2023/05/22 03:20:52;;;;;;;16.02;14.77;;;17.70;86.10;;;;;;5041143;28;20203;-89
2023/05/22 03:23:19;;;;;;;16.48;15.27;;;17.70;87.50;;;;;;5033472;28;20533;-89
2023/05/22 03:25:46;;;;;;;15.30;14.20;;;17.60;87.70;;;;;;5000615;28;20202;-87
2023/05/22 03:28:13;;;;;;;15.13;13.98;;;17.70;87.60;;;;;;5000687;28;20656;-88
2023/05/22 03:30:38;;;;;;;15.77;14.48;;;17.70;87.20;;;;;;5001251;28;20198;-88
2023/05/22 03:33:04;;;;;;;15.88;14.50;;;17.70;86.60;;;;;;4999649;28;20174;-88
2023/05/22 03:35:30;;;;;;;16.02;14.73;;;17.70;86.80;;;;;;5004045;28;20237;-89
2023/05/22 03:37:55;;;;;;;16.38;15.00;;;17.70;87.90;;;;;;5039379;28;20226;-88
2023/05/22 03:40:21;;;;;;;17.33;15.82;;;17.70;88.40;;;;;;5031005;28;20251;-89
2023/05/22 03:42:48;;;;;;;17.20;15.80;;;17.70;88.20;;;;;;5020456;28;20173;-88
2023/05/22 03:45:13;;;;;;;16.45;15.00;;;17.70;88.20;;;;;;5019046;28;20229;-88
2023/05/22 03:47:39;;;;;;;16.83;15.30;;;17.70;87.70;;;;;;5020112;28;20189;-89
2023/05/22 03:50:05;;;;;;;15.70;14.40;;;17.80;87.30;;;;;;5019689;28;20181;-88
2023/05/22 03:52:31;;;;;;;16.58;14.93;;;17.80;87.40;;;;;;5020539;28;20285;-88
2023/05/22 03:54:56;;;;;;;16.63;15.25;;;17.70;86.90;;;;;;5021693;28;20193;-88
2023/05/22 03:57:22;;;;;;;16.10;14.13;;;17.60;88.40;;;;;;5019334;28;20178;-88
2023/05/22 03:59:48;;;;;;;16.85;15.30;;;17.60;88.50;;;;;;5021616;28;20206;-87
2023/05/22 04:02:15;;;;;;;16.88;15.27;;;17.50;88.70;;;;;;5021573;28;20233;-89
2023/05/22 04:04:44;;;;;;;16.10;14.77;;;17.40;88.80;;;;;;5019130;28;20232;-88
2023/05/22 04:07:12;;;;;;;16.73;15.32;;;17.30;90.10;;;;;;5030304;28;20193;-88
2023/05/22 04:09:38;;;;;;;16.52;15.10;;;17.30;90.60;;;;;;5017724;28;20334;-88
2023/05/22 04:12:04;;;;;;;17.30;15.88;;;17.30;91.60;;;;;;5015976;28;20177;-88
2023/05/22 04:14:29;;;;;;;17.40;16.02;;;17.40;91.50;;;;;;5042701;28;20705;-88
2023/05/22 04:16:59;;;;;;;17.63;16.00;;;17.40;91.80;;;;;;5023626;28;20198;-88
2023/05/22 04:19:26;;;;;;;16.55;15.02;;;17.40;91.20;;;;;;5019578;28;20191;-87
2023/05/22 04:21:53;;;;;;;17.33;15.82;;;17.50;90.60;;;;;;5019776;28;20169;-87
2023/05/22 04:24:21;;;;;;;25.02;15.68;;;17.50;91.50;;;;;;5020573;28;20189;-87
2023/05/22 04:26:48;;;;;;;17.42;15.85;;;17.50;91.80;;;;;;5021233;28;20170;-88
2023/05/22 04:29:13;;;;;;;17.48;16.13;;;17.60;91.50;;;;;;5021329;28;20247;-86
2023/05/22 04:31:39;;;;;;;18.02;16.52;;;17.60;92.20;;;;;;5021245;28;20181;-87
2023/05/22 04:34:06;;;;;;;18.02;16.63;;;17.60;92.20;;;;;;5022240;28;20205;-86
2023/05/22 04:36:31;;;;;;;17.23;15.82;;;17.60;92.70;;;;;;5017522;28;20210;-88
2023/05/22 04:38:59;;;;;;;18.73;17.10;;;17.60;93.10;;;;;;5012525;28;20224;-87
2023/05/22 04:41:26;;;;;;;18.10;16.52;;;17.60;94.40;;;;;;5021032;28;20204;-88
2023/05/22 04:43:53;;;;;;;19.48;17.42;;;17.60;94.50;;;;;;5017972;28;20213;-87
2023/05/22 04:46:19;;;;;;;17.67;16.27;;;17.70;95.00;;;;;;5002801;28;20454;-88
2023/05/22 04:48:46;;;;;;;17.38;15.95;;;17.70;94.60;;;;;;5002860;28;20245;-87
2023/05/22 04:51:13;;;;;;;17.98;16.58;;;17.80;94.70;;;;;;5013761;28;20258;-87
2023/05/22 04:53:39;;;;;;;18.92;17.33;;;17.80;95.20;;;;;;5026915;28;20184;-87
2023/05/22 04:56:05;;;;;;;17.67;16.17;;;17.70;95.50;;;;;;5029875;28;20219;-87
2023/05/22 04:58:31;;;;;;;17.80;16.27;;;17.80;94.90;;;;;;5027614;28;20185;-87
2023/05/22 05:00:57;;;;;;;18.73;17.23;;;18.00;94.20;;;;;;5024347;28;20280;-88
2023/05/22 05:03:24;;;;;;;17.77;16.30;;;18.00;93.60;;;;;;5025009;28;20185;-87
2023/05/22 05:05:51;;;;;;;18.10;16.70;;;18.00;93.50;;;;;;5013116;28;20198;-87
2023/05/22 05:08:16;;;;;;;27.88;18.42;;;18.00;94.80;;;;;;5027471;28;20162;-87
2023/05/22 05:10:42;;;;;;;18.95;16.75;;;18.00;95.10;;;;;;5035272;28;20387;-88
2023/05/22 05:13:08;;;;;;;18.08;16.42;;;18.10;95.50;;;;;;5047947;28;20189;-87
2023/05/22 05:15:33;;;;;;;18.40;16.50;;;18.10;95.50;;;;;;5055291;28;20209;-86
2023/05/22 05:17:59;;;;;;;19.13;17.40;;;18.20;95.50;;;;;;5054050;28;20223;-88
2023/05/22 05:20:26;;;;;;;19.20;17.75;;;18.20;95.70;;;;;;5053590;28;20177;-89
2023/05/22 05:22:52;;;;;;;18.10;16.50;;;18.00;98.20;;;;;;5048654;28;20200;-88
2023/05/22 05:25:17;;;;;;;19.08;17.58;;;18.00;99.00;;;;;;5028229;28;20205;-87
2023/05/22 05:27:43;;;;;;;17.60;16.20;;;17.90;99.90;;;;;;5021436;28;20182;-87
2023/05/22 05:30:09;;;;;;;17.58;16.17;;;17.90;99.90;;;;;;5007660;28;20212;-88
2023/05/22 05:32:35;;;;;;;17.92;16.48;;;17.90;99.90;;;;;;5014004;28;20679;-87
2023/05/22 05:35:01;;;;;;;17.90;16.50;;;17.90;99.90;;;;;;5019012;28;20311;-87
2023/05/22 05:37:27;;;;;;;18.60;17.00;;;17.90;99.90;;;;;;5017760;28;20208;-87
2023/05/22 05:39:52;;;;;;;17.92;16.42;;;17.90;99.90;;;;;;5017239;28;20197;-87
2023/05/22 05:42:18;;;;;;;18.40;16.80;;;17.90;99.90;;;;;;5019862;28;20186;-88
2023/05/22 05:44:44;;;;;;;19.45;17.55;;;17.90;99.90;;;;;;5013983;28;20205;-87
2023/05/22 05:47:10;;;;;;;18.65;16.95;;;18.00;99.90;;;;;;5000360;28;20255;-87
2023/05/22 05:49:35;;;;;;;18.77;17.08;;;17.90;99.90;;;;;;5000813;28;20185;-87
2023/05/22 05:52:01;;;;;;;18.50;16.92;;;18.00;99.90;;;;;;5000048;28;20205;-87
2023/05/22 05:54:26;;;;;;;17.60;16.23;;;18.10;99.90;;;;;;5003423;28;20718;-87
2023/05/22 05:56:52;;;;;;;17.80;16.27;;;18.20;99.90;;;;;;5011848;28;20213;-87
2023/05/22 05:59:18;;;;;;;18.00;16.13;;;18.20;99.90;;;;;;5022391;28;20185;-86
2023/05/22 06:01:47;;;;;;;17.50;16.10;;;18.30;99.90;;;;;;5021245;28;20188;-87
2023/05/22 06:04:13;;;;;;;17.63;16.15;;;18.40;99.90;;;;;;5022322;28;20194;-86
2023/05/22 06:06:39;;;;;;;17.73;16.33;;;18.40;99.90;;;;;;5022011;28;20249;-87
2023/05/22 06:09:05;;;;;;;16.30;14.65;;;18.50;99.90;;;;;;5021202;28;20242;-88
2023/05/22 06:11:31;;;;;;;17.20;15.75;;;18.50;98.30;;;;;;5020043;28;20596;-88
2023/05/22 06:13:58;;;;;;;15.90;14.63;;;18.50;99.90;;;;;;5040240;28;20250;-90
2023/05/22 06:16:25;;;;;;;16.55;15.30;;;18.60;98.50;;;;;;5039303;28;20204;-88
2023/05/22 06:18:51;;;;;;;16.83;15.43;;;18.60;98.50;;;;;;5040435;28;20169;-87
2023/05/22 06:21:19;;;;;;;16.35;14.98;;;18.80;96.80;;;;;;5041465;28;20200;-87
2023/05/22 06:23:46;;;;;;;16.48;14.98;;;18.80;97.30;;;;;;5041990;28;20591;-86
2023/05/22 06:26:12;;;;;;;16.77;15.05;;;18.70;98.60;;;;;;5038590;28;20207;-87
2023/05/22 06:28:38;;;;;;;16.88;15.23;;;18.80;98.50;;;;;;5023254;28;20675;-88
2023/05/22 06:31:04;;;;;;;17.13;15.82;;;18.70;99.10;;;;;;5017086;28;20185;-87
2023/05/22 06:33:30;;;;;;;17.67;15.93;;;18.80;99.30;;;;;;5018990;28;20269;-87
2023/05/22 06:35:56;;;;;;;17.27;15.82;;;18.80;98.60;;;;;;5019803;28;20217;-87
2023/05/22 06:38:22;;;;;;;17.42;16.08;;;18.70;99.50;;;;;;5020584;28;20199;-86
2023/05/22 06:40:47;;;;;;;17.65;16.15;;;18.90;97.80;;;;;;5021035;28;20591;-87
2023/05/22 06:43:13;;;;;;;17.63;16.13;;;19.10;98.80;;;;;;5002876;28;20182;-86
2023/05/22 06:45:39;;;;;;;17.90;16.42;;;19.30;97.20;;;;;;5016857;28;20202;-87
2023/05/22 06:48:05;;;;;;;18.02;16.52;;;19.20;95.40;;;;;;5019680;28;20185;-87
2023/05/22 06:50:30;;;;;;;18.73;17.23;;;19.20;94.90;;;;;;5016761;28;20197;-87
2023/05/22 06:52:56;;;;;;;16.88;15.18;;;19.40;94.60;;;;;;5010187;28;20189;-86
2023/05/22 06:55:22;;;;;;;16.92;15.27;;;19.50;93.00;;;;;;5021223;28;20239;-86
2023/05/22 06:57:48;;;;;;;16.38;15.07;;;19.50;93.00;;;;;;5020038;28;20179;-87
2023/05/22 07:00:14;;;;;;;17.02;15.73;;;19.60;93.20;;;;;;5019357;28;20183;-86
2023/05/22 07:02:40;;;;;;;16.63;15.30;;;19.70;93.80;;;;;;5022513;28;20185;-88
2023/05/22 07:05:06;;;;;;;17.08;15.65;;;19.80;92.50;;;;;;5021440;28;20556;-87
2023/05/22 07:07:32;;;;;;;15.80;14.45;;;19.90;93.90;;;;;;5022161;28;20216;-87
2023/05/22 07:09:57;;;;;;;16.50;15.20;;;20.00;91.50;;;;;;5021326;28;20756;-87
2023/05/22 07:12:25;;;;;;;16.17;14.88;;;20.20;89.80;;;;;;5019167;28;20174;-87
2023/05/22 07:14:51;;;;;;;16.25;14.85;;;20.20;90.70;;;;;;5019209;28;20213;-87
2023/05/22 07:17:19;;;;;;;16.23;14.95;;;20.30;89.70;;;;;;5017592;28;20182;-86
2023/05/22 07:19:45;;;;;;;16.42;14.77;;;20.40;88.80;;;;;;5017814;28;20176;-89
2023/05/22 07:22:10;;;;;;;15.55;14.32;;;20.60;85.40;;;;;;5022209;28;20174;-87
2023/05/22 07:24:36;;;;;;;16.00;14.55;;;20.60;85.20;;;;;;5023659;28;20204;-87
2023/05/22 07:27:03;;;;;;;16.23;14.82;;;20.70;83.90;;;;;;5008522;28;20201;-87
2023/05/22 07:29:28;;;;;;;16.10;14.63;;;20.70;85.90;;;;;;5004820;28;20410;-85
2023/05/22 07:31:54;;;;;;;15.55;14.40;;;20.80;84.20;;;;;;5002329;28;20665;-87
2023/05/22 07:34:21;;;;;;;15.55;14.32;;;20.60;82.70;;;;;;5003537;28;20243;-87
2023/05/22 07:36:46;;;;;;;15.82;14.50;;;20.50;85.30;;;;;;5003601;28;20763;-89
2023/05/22 07:39:12;;;;;;;14.90;13.63;;;20.60;84.50;;;;;;5005164;28;20245;-86
2023/05/22 07:41:38;;;;;;;14.15;12.85;;;20.50;83.80;;;;;;5023254;28;20206;-86
2023/05/22 07:44:04;;;;;;;15.05;13.75;;;20.50;84.60;;;;;;5024968;28;20251;-87
2023/05/22 07:46:30;;;;;;;13.25;12.15;;;20.70;83.90;;;;;;5025111;28;20222;-87
2023/05/22 07:48:55;;;;;;;13.10;12.10;;;20.60;83.70;;;;;;5024163;28;20189;-88
2023/05/22 07:51:21;;;;;;;13.38;12.38;;;20.80;82.30;;;;;;5031512;28;20187;-88
2023/05/22 07:53:47;;;;;;;13.10;12.10;;;20.80;83.00;;;;;;5037200;28;20250;-87
2023/05/22 07:56:12;;;;;;;14.02;12.82;;;20.90;82.20;;;;;;5021734;28;20270;-87
2023/05/22 07:58:38;;;;;;;14.50;13.07;;;21.00;82.00;;;;;;5004515;28;20187;-86
2023/05/22 08:01:06;;;;;;;14.32;13.02;;;21.30;81.00;;;;;;5005739;28;20205;-87
2023/05/22 08:03:32;;;;;;;13.02;12.02;;;21.40;80.10;;;;;;5003621;28;20568;-88
2023/05/22 08:05:58;;;;;;;13.27;12.18;;;21.50;79.70;;;;;;5002508;28;20667;-88
2023/05/22 08:08:23;;;;;;;14.10;12.80;;;21.60;77.90;;;;;;5002158;28;20170;-87
2023/05/22 08:10:49;;;;;;;14.98;13.68;;;21.70;77.80;;;;;;5002316;28;20233;-86
2023/05/22 08:13:17;;;;;;;15.45;14.15;;;21.60;77.60;;;;;;5021535;28;20182;-87
2023/05/22 08:15:43;;;;;;;14.50;13.40;;;21.60;78.50;;;;;;5022481;28;20746;-86
2023/05/22 08:18:09;;;;;;;13.55;12.52;;;21.70;77.30;;;;;;5020336;28;20212;-87
2023/05/22 08:20:34;;;;;;;15.15;13.77;;;21.80;76.50;;;;;;5023191;28;20216;-87
2023/05/22 08:23:00;;;;;;;13.88;12.77;;;21.70;78.30;;;;;;5022751;28;20178;-87
2023/05/22 08:25:26;;;;;;;14.63;13.30;;;21.90;78.40;;;;;;5023527;28;20208;-87
2023/05/22 08:27:51;;;;;;;14.75;13.57;;;22.10;78.30;;;;;;5023618;28;20205;-87
2023/05/22 08:30:17;;;;;;;14.32;13.02;;;22.30;75.60;;;;;;5022177;28;20178;-88
2023/05/22 08:32:43;;;;;;;13.63;12.63;;;22.30;76.50;;;;;;5021821;28;20726;-87
2023/05/22 08:35:09;;;;;;;14.18;12.95;;;22.30;75.50;;;;;;5020757;28;20212;-87
2023/05/22 08:37:34;;;;;;;14.82;13.55;;;22.40;76.60;;;;;;5020848;28;20263;-87
2023/05/22 08:40:00;;;;;;;14.45;13.35;;;22.50;75.40;;;;;;5020964;28;20303;-87
2023/05/22 08:42:26;;;;;;;15.98;14.55;;;22.30;74.90;;;;;;5021158;28;20234;-86
2023/05/22 08:44:54;;;;;;;14.80;13.70;;;22.20;75.40;;;;;;5020256;28;20303;-87
2023/05/22 08:47:22;;;;;;;15.07;13.50;;;22.30;74.50;;;;;;5016774;28;20193;-87
2023/05/22 08:49:50;;;;;;;14.63;13.27;;;22.40;73.50;;;;;;4999933;28;20186;-87
2023/05/22 08:52:25;;;;;;;15.30;14.10;;;22.50;72.20;;;;;;5002129;28;20182;-86
2023/05/22 08:54:53;;;;;;;15.05;13.80;;;22.50;71.60;;;;;;5002384;28;20213;-87
2023/05/22 08:57:20;;;;;;;14.98;13.68;;;22.60;72.90;;;;;;5002411;28;20178;-87
2023/05/22 08:59:47;;;;;;;14.38;13.18;;;22.90;70.90;;;;;;5001392;28;20178;-87
2023/05/22 09:02:13;;;;;;;15.23;13.82;;;23.00;70.50;;;;;;5002956;28;20184;-88
2023/05/22 09:04:42;;;;;;;15.55;14.45;;;23.00;71.10;;;;;;5001895;28;20206;-87
2023/05/22 09:07:08;;;;;;;15.93;14.68;;;23.20;71.60;;;;;;4998498;28;20193;-87
2023/05/22 09:09:37;;;;;;;15.13;13.82;;;23.40;69.40;;;;;;5000695;28;20182;-86
2023/05/22 09:12:10;;;;;;;16.08;14.43;;;23.40;70.30;;;;;;5007760;28;20172;-87
2023/05/22 09:14:42;;;;;;;15.82;14.43;;;23.60;69.30;;;;;;5039256;28;20197;-88
2023/05/22 09:17:14;;;;;;;15.88;14.68;;;23.70;69.00;;;;;;5037681;28;20597;-87
2023/05/22 09:19:46;;;;;;;16.00;14.70;;;23.90;69.30;;;;;;5041487;28;20165;-88
2023/05/22 09:22:12;;;;;;;15.27;13.82;;;23.90;67.40;;;;;;5029045;28;20189;-87
2023/05/22 09:24:41;;;;;;;16.10;14.70;;;23.80;69.00;;;;;;5026669;28;20213;-87
2023/05/22 09:27:07;;;;;;;16.95;15.45;;;23.90;70.40;;;;;;5026878;28;20245;-87
2023/05/22 09:29:52;;;;;;;15.98;14.68;;;24.40;68.00;;;;;;5025765;28;20181;-88
2023/05/22 09:32:18;;;;;;;17.25;15.65;;;24.60;64.00;;;;;;5025931;28;20176;-87
2023/05/22 09:34:45;;;;;;;17.23;15.93;;;24.80;65.30;;;;;;5025848;28;20197;-87
2023/05/22 09:37:12;;;;;;;16.27;14.55;;;24.90;63.80;;;;;;5022796;28;20209;-87
2023/05/22 09:39:40;;;;;;;16.65;15.45;;;25.20;62.50;;;;;;5000508;28;20194;-87
2023/05/22 09:42:08;;;;;;;16.63;15.32;;;25.30;63.10;;;;;;5013794;28;20243;-88
2023/05/22 09:44:34;;;;;;;17.95;16.48;;;25.60;60.40;;;;;;5016246;28;20209;-87
2023/05/22 09:47:00;;;;;;;17.83;16.23;;;25.50;62.20;;;;;;5000667;28;20182;-87
2023/05/22 09:49:26;;;;;;;17.70;16.33;;;25.60;62.20;;;;;;5002653;28;20206;-87
2023/05/22 09:51:54;;;;;;;18.08;16.70;;;25.80;61.90;;;;;;5006154;28;20240;-88
2023/05/22 09:54:20;;;;;;;18.58;17.08;;;25.70;61.20;;;;;;5003145;28;20588;-88
2023/05/22 09:56:52;;;;;;;18.00;16.45;;;25.70;59.80;;;;;;5013552;28;20228;-87
2023/05/22 09:59:25;;;;;;;17.67;16.35;;;25.70;59.90;;;;;;5002047;28;20182;-88
2023/05/22 10:01:52;;;;;;;17.52;16.25;;;26.00;59.50;;;;;;4997945;28;20194;-88
2023/05/22 10:04:21;;;;;;;18.30;17.00;;;26.20;60.00;;;;;;4999704;28;20199;-89
2023/05/22 10:06:51;;;;;;;17.17;15.68;;;26.20;59.20;;;;;;4999331;28;20171;-87
2023/05/22 10:09:20;;;;;;;17.52;16.08;;;26.40;58.70;;;;;;4999441;28;20174;-88
2023/05/22 10:11:47;;;;;;;18.05;16.60;;;26.50;58.60;;;;;;5010090;28;20213;-87
2023/05/22 10:14:14;;;;;;;19.33;17.85;;;26.70;57.60;;;;;;5039204;28;20262;-87
2023/05/22 10:16:41;;;;;;;19.02;17.50;;;26.90;56.50;;;;;;5040125;28;20235;-87
2023/05/22 10:19:07;;;;;;;19.70;18.10;;;26.90;56.40;;;;;;5039548;28;20184;-88
2023/05/22 10:21:35;;;;;;;18.95;17.38;;;26.90;57.50;;;;;;5038988;28;20591;-87
2023/05/22 10:24:02;;;;;;;20.30;18.70;;;26.80;58.00;;;;;;5039139;28;20179;-87
2023/05/22 10:26:28;;;;;;;17.58;16.35;;;26.60;58.10;;;;;;5033579;28;20178;-88
2023/05/22 10:29:10;;;;;;;19.77;18.33;;;27.00;56.60;;;;;;5019357;28;20668;-88
2023/05/22 10:31:48;;;;;;;20.25;18.75;;;27.20;56.30;;;;;;5018735;28;20628;-87
2023/05/22 10:34:28;;;;;;;20.27;18.55;;;27.20;56.60;;;;;;5018121;28;20247;-87
2023/05/22 10:37:01;;;;;;;19.27;17.42;;;27.60;54.50;;;;;;5017357;28;20211;-88
2023/05/22 10:39:42;;;;;;;19.20;17.60;;;27.90;54.70;;;;;;5018435;28;20685;-88
2023/05/22 10:42:14;;;;;;;18.55;17.25;;;28.10;54.80;;;;;;5019908;28;20196;-88
2023/05/22 10:44:40;;;;;;;20.95;19.35;;;28.20;52.50;;;;;;5009459;28;20210;-87
2023/05/22 10:47:11;;;;;;;18.05;16.65;;;27.90;53.60;;;;;;5002073;28;20182;-88
2023/05/22 10:49:37;;;;;;;19.48;17.98;;;28.00;54.60;;;;;;5000505;28;20178;-88
2023/05/22 10:52:03;;;;;;;17.67;16.38;;;27.80;55.00;;;;;;5019625;28;20262;-87
2023/05/22 10:54:43;;;;;;;19.30;17.80;;;28.30;53.60;;;;;;5019587;28;20189;-88
2023/05/22 10:57:21;;;;;;;20.15;18.48;;;28.70;51.20;;;;;;5018055;28;20201;-88
2023/05/22 10:59:47;;;;;;;19.92;18.52;;;28.10;55.30;;;;;;5023278;28;20172;-88
2023/05/22 11:02:18;;;;;;;18.92;17.45;;;27.80;54.20;;;;;;5025830;28;20173;-87
2023/05/22 11:04:44;;;;;;;18.75;17.02;;;28.20;54.00;;;;;;5013167;28;20284;-90
2023/05/22 11:07:13;;;;;;;20.80;19.05;;;28.40;52.20;;;;;;5024646;28;20313;-88
2023/05/22 11:09:44;;;;;;;18.52;17.23;;;28.50;51.90;;;;;;5020777;28;20189;-88
2023/05/22 11:12:23;;;;;;;19.45;18.05;;;28.80;49.90;;;;;;5027112;28;20181;-87
2023/05/22 11:14:52;;;;;;;19.50;18.00;;;28.90;50.00;;;;;;5044477;28;20264;-88
2023/05/22 11:17:27;;;;;;;18.88;17.45;;;29.50;48.10;;;;;;5043300;28;20304;-87
2023/05/22 11:20:15;;;;;;;19.48;18.00;;;29.60;49.60;;;;;;5043974;28;20567;-88
2023/05/22 11:22:43;;;;;;;18.90;17.35;;;29.20;49.40;;;;;;5003237;28;20213;-87
2023/05/22 11:25:17;;;;;;;18.25;16.95;;;28.90;49.50;;;;;;5021300;28;20224;-87
2023/05/22 11:27:43;;;;;;;19.45;18.05;;;29.60;47.00;;;;;;5022242;28;20178;-86
2023/05/22 11:30:10;;;;;;;17.98;16.67;;;30.00;45.70;;;;;;5021114;28;20181;-87
2023/05/22 11:32:37;;;;;;;18.88;17.55;;;30.00;44.90;;;;;;5021648;28;20174;-86
2023/05/22 11:35:09;;;;;;;18.58;17.17;;;30.40;43.30;;;;;;5015121;28;20248;-87
2023/05/22 11:37:38;;;;;;;18.40;17.10;;;30.30;42.00;;;;;;5021221;28;20178;-88
2023/05/22 11:40:05;;;;;;;19.00;17.50;;;30.10;43.00;;;;;;5022007;28;20582;-87
2023/05/22 11:42:31;;;;;;;19.42;18.17;;;30.50;42.60;;;;;;5022890;28;20348;-88
2023/05/22 11:44:57;;;;;;;19.35;18.00;;;30.90;41.90;;;;;;5011764;28;20229;-87
2023/05/22 11:47:25;;;;;;;20.23;18.70;;;31.30;41.10;;;;;;5002890;28;20265;-88
2023/05/22 11:49:52;;;;;;;19.58;18.33;;;31.70;40.30;;;;;;5002967;28;20182;-87
2023/05/22 11:52:18;;;;;;;20.92;19.52;;;31.00;40.00;;;;;;5002374;28;20263;-86
2023/05/22 11:54:47;;;;;;;20.52;19.02;;;31.10;41.50;;;;;;5001660;28;20230;-86
2023/05/22 11:57:14;;;;;;;20.48;19.08;;;31.40;41.70;;;;;;5001269;28;20262;-87
2023/05/22 11:59:43;;;;;;;19.85;18.35;;;31.10;41.20;;;;;;5002741;28;20183;-88
2023/05/22 12:02:09;;;;;;;20.17;18.58;;;31.00;41.70;;;;;;5003294;28;20257;-88
2023/05/22 12:04:36;;;;;;;18.70;17.40;;;31.20;39.80;;;;;;5002918;28;20229;-87
2023/05/22 12:07:02;;;;;;;18.73;17.50;;;31.10;40.60;;;;;;5002335;28;20549;-87
2023/05/22 12:09:28;;;;;;;18.98;17.73;;;31.50;39.80;;;;;;5006631;28;20181;-86
2023/05/22 12:11:56;;;;;;;18.23;16.92;;;31.80;38.10;;;;;;5018065;28;20194;-88
2023/05/22 12:14:30;;;;;;;19.20;17.70;;;31.50;38.70;;;;;;5041438;28;20212;-87
2023/05/22 12:16:59;;;;;;;19.25;17.92;;;31.60;37.30;;;;;;5014905;28;20636;-87
2023/05/22 12:19:25;;;;;;;19.65;18.55;;;32.10;37.00;;;;;;5002964;28;20175;-87
2023/05/22 12:21:52;;;;;;;19.25;18.15;;;32.70;34.40;;;;;;5000823;28;20265;-88
2023/05/22 12:24:22;;;;;;;19.95;18.65;;;32.90;33.40;;;;;;5001122;28;20202;-88
2023/05/22 12:26:54;;;;;;;20.17;18.85;;;32.80;33.70;;;;;;5011987;28;20261;-88
2023/05/22 12:29:23;;;;;;;19.00;17.80;;;32.90;34.40;;;;;;5019222;28;20197;-88
2023/05/22 12:31:50;;;;;;;19.42;18.33;;;32.60;34.80;;;;;;5022244;28;20197;-88